createdAt,value
2022-09-26T00:01:07.080Z,26.01
2022-09-26T00:02:08.907Z,25.05
2022-09-26T00:03:11.558Z,24.77
2022-09-26T00:04:32.600Z,25.16
2022-09-26T00:05:34.771Z,26.37
2022-09-26T00:06:36.934Z,25.66
2022-09-26T00:07:38.587Z,25.16
2022-09-26T00:08:40.607Z,26.50
2022-09-26T00:09:42.263Z,25.71
2022-09-26T00:10:43.904Z,26.44
2022-09-26T00:11:46.285Z,26.42
2022-09-26T00:12:48.041Z,27.48
2022-09-26T00:13:53.474Z,25.94
2022-09-26T00:14:55.190Z,27.94
2022-09-26T00:15:57.824Z,27.28
2022-09-26T00:17:00.045Z,27.44
2022-09-26T00:18:01.836Z,28.11
2022-09-26T00:19:04.791Z,28.61
2022-09-26T00:20:07.001Z,28.09
2022-09-26T00:21:14.551Z,27.79
2022-09-26T00:22:16.262Z,28.65
2022-09-26T00:23:18.414Z,27.49
2022-09-26T00:24:20.101Z,27.98
2022-09-26T00:25:21.802Z,26.42
2022-09-26T00:26:26.811Z,27.86
2022-09-26T00:27:28.449Z,28.32
2022-09-26T00:28:30.497Z,27.82
2022-09-26T00:29:32.116Z,28.73
2022-09-26T00:30:37.018Z,27.21
2022-09-26T00:31:44.295Z,28.79
2022-09-26T00:32:46.510Z,28.70
2022-09-26T00:33:48.374Z,28.30
2022-09-26T00:34:50.644Z,28.34
2022-09-26T00:35:56.821Z,28.15
2022-09-26T00:36:59.013Z,27.16
2022-09-26T00:38:00.702Z,27.20
2022-09-26T00:39:02.577Z,27.52
2022-09-26T00:40:04.968Z,27.18
2022-09-26T00:41:07.726Z,27.93
2022-09-26T00:42:14.990Z,27.32
2022-09-26T00:43:32.139Z,26.42
2022-09-26T00:44:50.094Z,26.79
2022-09-26T00:45:51.858Z,27.73
2022-09-26T00:46:53.619Z,26.99
2022-09-26T00:48:03.825Z,27.34
2022-09-26T00:49:23.518Z,26.51
2022-09-26T00:50:31.892Z,26.16
2022-09-26T00:51:39.499Z,25.92
2022-09-26T00:52:49.347Z,25.46
2022-09-26T00:53:54.055Z,26.28
2022-09-26T00:55:01.346Z,25.66
2022-09-26T00:56:11.235Z,26.64
2022-09-26T00:57:19.224Z,26.32
2022-09-26T00:58:24.531Z,25.84
2022-09-26T00:59:35.539Z,27.70
2022-09-26T01:00:42.368Z,27.81
2022-09-26T01:01:45.234Z,27.04
2022-09-26T01:02:48.617Z,28.22
2022-09-26T01:03:52.045Z,27.24
2022-09-26T01:04:56.538Z,28.30
2022-09-26T01:06:00.884Z,27.94
2022-09-26T01:07:08.611Z,27.73
2022-09-26T01:08:13.264Z,26.00
2022-09-26T01:09:16.802Z,26.87
2022-09-26T01:10:18.724Z,26.89
2022-09-26T01:11:21.823Z,26.66
2022-09-26T01:12:23.967Z,25.81
2022-09-26T01:13:27.027Z,26.10
2022-09-26T01:14:28.797Z,25.17
2022-09-26T01:15:30.535Z,24.58
2022-09-26T01:16:34.389Z,23.68
2022-09-26T01:17:44.333Z,25.45
2022-09-26T01:18:47.833Z,25.26
2022-09-26T01:20:10.094Z,26.23
2022-09-26T01:21:36.228Z,25.48
2022-09-26T01:23:06.078Z,24.19
2022-09-26T01:24:37.876Z,23.40
2022-09-26T01:26:17.404Z,23.99
2022-09-26T01:27:42.927Z,23.08
2022-09-26T01:29:27.986Z,22.81
2022-09-26T01:30:50.932Z,22.87
2022-09-26T01:32:50.403Z,23.18
2022-09-26T01:34:24.475Z,23.17
2022-09-26T01:35:55.350Z,23.04
2022-09-26T01:37:22.971Z,23.61
2022-09-26T01:38:43.238Z,22.17
2022-09-26T01:40:02.536Z,21.75
2022-09-26T01:41:28.414Z,21.35
2022-09-26T01:43:13.112Z,20.91
2022-09-26T01:44:46.759Z,21.46
2022-09-26T01:46:13.603Z,21.07
2022-09-26T01:47:25.097Z,21.88
2022-09-26T01:48:44.461Z,20.93
2022-09-26T01:50:06.420Z,21.93
2022-09-26T01:51:36.386Z,21.91
2022-09-26T01:53:13.555Z,21.91
2022-09-26T01:54:23.274Z,21.55
2022-09-26T01:55:36.128Z,20.38
2022-09-26T01:56:42.275Z,20.92
2022-09-26T01:58:10.795Z,21.15
2022-09-26T01:59:33.344Z,20.15
2022-09-26T02:00:40.955Z,20.48
2022-09-26T02:01:47.334Z,20.24
2022-09-26T02:02:51.096Z,19.53
2022-09-26T02:04:03.204Z,20.77
2022-09-26T02:05:12.027Z,20.77
2022-09-26T02:06:23.064Z,21.52
2022-09-26T02:07:39.059Z,21.57
2022-09-26T02:08:46.950Z,20.80
2022-09-26T02:10:02.660Z,20.83
2022-09-26T02:11:13.609Z,21.71
2022-09-26T02:12:32.876Z,21.17
2022-09-26T02:13:44.597Z,20.64
2022-09-26T02:14:51.241Z,20.80
2022-09-26T02:16:01.037Z,20.66
2022-09-26T02:17:11.939Z,20.17
2022-09-26T02:18:39.533Z,19.88
2022-09-26T02:19:59.989Z,20.84
2022-09-26T02:21:07.806Z,21.28
2022-09-26T02:22:10.421Z,21.09
2022-09-26T02:23:13.889Z,20.27
2022-09-26T02:24:16.040Z,20.74
2022-09-26T02:25:18.053Z,20.29
2022-09-26T02:26:20.239Z,21.09
2022-09-26T02:27:22.410Z,20.35
2022-09-26T02:28:24.137Z,19.69
2022-09-26T02:29:26.344Z,18.99
2022-09-26T02:30:29.320Z,19.22
2022-09-26T02:31:36.915Z,18.97
2022-09-26T02:32:40.543Z,19.57
2022-09-26T02:33:42.434Z,19.53
2022-09-26T02:34:48.278Z,19.29
2022-09-26T02:35:55.849Z,20.08
2022-09-26T02:37:01.256Z,18.07
2022-09-26T02:38:06.929Z,18.92
2022-09-26T02:39:11.824Z,19.57
2022-09-26T02:40:56.514Z,18.96
2022-09-26T02:42:13.281Z,19.13
2022-09-26T02:44:03.337Z,18.75
2022-09-26T02:45:23.597Z,18.70
2022-09-26T02:46:53.700Z,18.50
2022-09-26T02:48:14.055Z,19.16
2022-09-26T02:49:45.359Z,17.22
2022-09-26T02:51:00.794Z,18.07
2022-09-26T02:52:36.029Z,18.65
2022-09-26T02:53:55.821Z,18.27
2022-09-26T02:55:21.995Z,18.51
2022-09-26T02:56:55.450Z,19.31
2022-09-26T02:58:18.730Z,17.66
2022-09-26T02:59:35.615Z,19.02
2022-09-26T03:01:05.907Z,18.30
2022-09-26T03:02:21.652Z,17.73
2022-09-26T03:04:04.849Z,17.61
2022-09-26T03:05:17.766Z,18.53
2022-09-26T03:06:28.129Z,18.09
2022-09-26T03:07:48.824Z,19.00
2022-09-26T03:08:55.085Z,18.90
2022-09-26T03:10:03.639Z,18.99
2022-09-26T03:11:10.854Z,19.36
2022-09-26T03:12:13.998Z,19.40
2022-09-26T03:13:18.461Z,20.02
2022-09-26T03:14:21.244Z,18.99
2022-09-26T03:15:27.521Z,18.44
2022-09-26T03:16:35.720Z,19.00
2022-09-26T03:17:44.604Z,17.90
2022-09-26T03:19:05.778Z,18.60
2022-09-26T03:20:14.856Z,20.39
2022-09-26T03:21:18.362Z,19.70
2022-09-26T03:22:20.085Z,18.24
2022-09-26T03:23:24.466Z,19.68
2022-09-26T03:24:27.747Z,19.52
2022-09-26T03:25:30.076Z,19.52
2022-09-26T03:26:41.987Z,18.86
2022-09-26T03:27:46.305Z,20.27
2022-09-26T03:28:48.046Z,20.02
2022-09-26T03:29:50.631Z,20.47
2022-09-26T03:30:55.882Z,20.43
2022-09-26T03:32:01.763Z,20.03
2022-09-26T03:33:03.681Z,20.78
2022-09-26T03:34:05.638Z,18.91
2022-09-26T03:35:08.811Z,19.54
2022-09-26T03:36:10.475Z,20.21
2022-09-26T03:37:12.409Z,19.66
2022-09-26T03:38:14.634Z,19.66
2022-09-26T03:39:21.775Z,19.83
2022-09-26T03:40:42.336Z,20.01
2022-09-26T03:42:10.008Z,21.34
2022-09-26T03:43:13.499Z,20.54
2022-09-26T03:44:15.951Z,20.63
2022-09-26T03:45:40.541Z,20.28
2022-09-26T03:46:52.317Z,20.50
2022-09-26T03:47:57.693Z,20.93
2022-09-26T03:48:59.652Z,21.10
2022-09-26T03:50:01.602Z,21.48
2022-09-26T03:51:09.254Z,21.42
2022-09-26T03:52:12.602Z,21.03
2022-09-26T03:53:14.580Z,21.04
2022-09-26T03:54:16.620Z,21.96
2022-09-26T03:55:18.554Z,21.71
2022-09-26T03:56:21.069Z,21.49
2022-09-26T03:57:23.117Z,22.94
2022-09-26T03:58:28.395Z,22.86
2022-09-26T03:59:30.370Z,23.27
2022-09-26T04:00:32.280Z,23.10
2022-09-26T04:01:34.112Z,22.45
2022-09-26T04:02:36.531Z,22.57
2022-09-26T04:03:50.847Z,22.49
2022-09-26T04:04:54.087Z,22.65
2022-09-26T04:05:55.809Z,22.39
2022-09-26T04:06:58.961Z,22.11
2022-09-26T04:08:03.036Z,22.43
2022-09-26T04:09:05.355Z,22.81
2022-09-26T04:10:07.785Z,23.48
2022-09-26T04:11:12.484Z,22.52
2022-09-26T04:12:14.708Z,23.29
2022-09-26T04:13:46.501Z,23.72
2022-09-26T04:14:40.108Z,22.82
2022-09-26T04:15:42.102Z,23.34
2022-09-26T04:16:47.534Z,21.95
2022-09-26T04:18:01.919Z,22.53
2022-09-26T04:19:04.221Z,22.87
2022-09-26T04:20:06.391Z,23.79
2022-09-26T04:21:11.594Z,22.32
2022-09-26T04:22:13.320Z,22.48
2022-09-26T04:23:15.670Z,23.01
2022-09-26T04:24:17.447Z,24.60
2022-09-26T04:25:19.100Z,22.69
2022-09-26T04:26:24.253Z,22.70
2022-09-26T04:27:28.802Z,23.56
2022-09-26T04:28:33.309Z,24.34
2022-09-26T04:29:35.011Z,24.23
2022-09-26T04:30:43.103Z,23.99
2022-09-26T04:31:45.982Z,23.38
2022-09-26T04:32:48.415Z,23.87
2022-09-26T04:34:02.278Z,23.78
2022-09-26T04:35:04.198Z,23.96
2022-09-26T04:36:09.353Z,23.30
2022-09-26T04:37:12.141Z,22.68
2022-09-26T04:38:13.992Z,23.26
2022-09-26T04:39:15.843Z,23.41
2022-09-26T04:40:17.605Z,23.12
2022-09-26T04:41:30.356Z,24.18
2022-09-26T04:42:36.980Z,24.14
2022-09-26T04:43:40.260Z,23.90
2022-09-26T04:44:44.886Z,24.78
2022-09-26T04:45:46.724Z,23.59
2022-09-26T04:46:48.745Z,24.42
2022-09-26T04:47:51.232Z,23.86
2022-09-26T04:49:02.540Z,22.95
2022-09-26T04:50:05.070Z,23.06
2022-09-26T04:51:07.926Z,22.26
2022-09-26T04:52:09.702Z,21.42
2022-09-26T04:53:12.381Z,22.70
2022-09-26T04:54:20.468Z,22.57
2022-09-26T04:55:22.949Z,22.19
2022-09-26T04:56:28.035Z,23.11
2022-09-26T04:57:29.868Z,23.32
2022-09-26T04:58:32.674Z,22.71
2022-09-26T04:59:34.450Z,23.21
2022-09-26T05:00:47.783Z,23.25
2022-09-26T05:01:51.421Z,24.44
2022-09-26T05:02:59.788Z,24.20
2022-09-26T05:04:01.781Z,23.51
2022-09-26T05:05:06.830Z,23.97
2022-09-26T05:06:13.581Z,24.89
2022-09-26T05:07:16.344Z,25.51
2022-09-26T05:08:18.109Z,25.69
2022-09-26T05:09:20.727Z,24.05
2022-09-26T05:10:28.750Z,25.10
2022-09-26T05:11:34.273Z,25.70
2022-09-26T05:12:36.018Z,25.85
2022-09-26T05:13:38.850Z,26.15
2022-09-26T05:14:44.347Z,25.60
2022-09-26T05:15:45.983Z,26.05
2022-09-26T05:16:47.981Z,27.03
2022-09-26T05:17:57.552Z,27.03
2022-09-26T05:18:59.525Z,26.35
2022-09-26T05:20:04.498Z,25.82
2022-09-26T05:21:56.145Z,26.09
2022-09-26T05:22:59.032Z,25.08
2022-09-26T05:24:19.560Z,24.16
2022-09-26T05:25:40.412Z,24.59
2022-09-26T05:26:49.367Z,24.87
2022-09-26T05:27:53.512Z,25.12
2022-09-26T05:29:07.715Z,25.21
2022-09-26T05:30:17.809Z,24.64
2022-09-26T05:31:19.816Z,25.08
2022-09-26T05:32:22.256Z,25.24
2022-09-26T05:33:25.297Z,26.61
2022-09-26T05:34:27.305Z,25.90
2022-09-26T05:35:29.146Z,25.80
2022-09-26T05:36:31.183Z,24.37
2022-09-26T05:37:33.634Z,24.57
2022-09-26T05:38:35.540Z,25.14
2022-09-26T05:39:56.166Z,24.88
2022-09-26T05:40:58.146Z,24.78
2022-09-26T05:42:01.122Z,23.77
2022-09-26T05:43:03.621Z,23.91
2022-09-26T05:44:05.417Z,23.71
2022-09-26T05:45:13.015Z,24.60
2022-09-26T05:46:16.689Z,23.83
2022-09-26T05:47:22.392Z,24.31
2022-09-26T05:48:25.485Z,24.85
2022-09-26T05:49:27.804Z,25.27
2022-09-26T05:50:29.731Z,24.86
2022-09-26T05:51:33.498Z,25.69
2022-09-26T05:52:39.448Z,24.32
2022-09-26T05:53:44.276Z,24.35
2022-09-26T05:54:47.648Z,23.16
2022-09-26T05:56:48.751Z,24.54
2022-09-26T05:58:10.030Z,23.50
2022-09-26T05:59:46.942Z,22.53
2022-09-26T06:01:17.441Z,24.04
2022-09-26T06:02:21.093Z,24.84
2022-09-26T06:03:46.788Z,24.26
2022-09-26T06:04:54.052Z,25.29
2022-09-26T06:06:44.281Z,24.96
2022-09-26T06:07:47.150Z,24.58
2022-09-26T06:09:07.487Z,23.89
2022-09-26T06:10:41.496Z,24.11
2022-09-26T06:11:43.184Z,24.24
2022-09-26T06:12:50.905Z,23.19
2022-09-26T06:13:53.578Z,23.30
2022-09-26T06:14:55.268Z,24.42
2022-09-26T06:16:00.557Z,23.59
2022-09-26T06:17:02.330Z,23.88
2022-09-26T06:18:05.243Z,24.18
2022-09-26T06:19:07.715Z,24.52
2022-09-26T06:20:10.807Z,25.95
2022-09-26T06:21:15.086Z,24.98
2022-09-26T06:22:16.779Z,25.46
2022-09-26T06:23:18.515Z,25.50
2022-09-26T06:24:21.256Z,25.08
2022-09-26T06:25:26.013Z,24.76
2022-09-26T06:26:30.686Z,25.12
2022-09-26T06:27:34.931Z,25.31
2022-09-26T06:28:38.981Z,24.67
2022-09-26T06:29:40.873Z,24.87
2022-09-26T06:30:42.625Z,24.80
2022-09-26T06:31:46.995Z,25.09
2022-09-26T06:32:53.272Z,25.33
2022-09-26T06:34:15.707Z,24.89
2022-09-26T06:36:15.850Z,24.93
2022-09-26T06:37:17.514Z,25.22
2022-09-26T06:38:19.187Z,25.30
2022-09-26T06:39:20.910Z,26.09
2022-09-26T06:40:22.745Z,25.18
2022-09-26T06:41:26.518Z,24.53
2022-09-26T06:42:28.203Z,25.67
2022-09-26T06:43:49.938Z,24.79
2022-09-26T06:45:10.672Z,23.89
2022-09-26T06:47:05.433Z,24.35
2022-09-26T06:48:13.211Z,24.28
2022-09-26T06:49:30.952Z,26.65
2022-09-26T06:50:37.845Z,26.00
2022-09-26T06:51:39.490Z,25.35
2022-09-26T06:52:44.085Z,24.99
2022-09-26T06:53:46.877Z,25.33
2022-09-26T06:54:56.701Z,28.01
2022-09-26T06:55:59.490Z,25.43
2022-09-26T06:57:01.549Z,26.56
2022-09-26T06:58:03.635Z,27.24
2022-09-26T06:59:12.992Z,26.30
2022-09-26T07:00:23.486Z,24.63
2022-09-26T07:02:06.350Z,25.21
2022-09-26T07:03:26.833Z,25.51
2022-09-26T07:04:38.952Z,24.57
2022-09-26T07:06:03.323Z,25.28
2022-09-26T07:07:05.618Z,23.92
2022-09-26T07:08:07.391Z,23.96
2022-09-26T07:09:12.240Z,23.98
2022-09-26T07:10:26.280Z,25.54
2022-09-26T07:11:56.624Z,26.13
2022-09-26T07:13:05.843Z,26.91
2022-09-26T07:14:07.582Z,26.58
2022-09-26T07:15:15.398Z,26.73
2022-09-26T07:16:18.147Z,27.16
2022-09-26T07:18:19.190Z,25.50
2022-09-26T07:19:35.610Z,24.93
2022-09-26T07:20:45.426Z,25.65
2022-09-26T07:22:05.537Z,24.69
2022-09-26T07:23:16.865Z,26.48
2022-09-26T07:24:19.888Z,26.98
2022-09-26T07:25:22.182Z,26.06
2022-09-26T07:26:24.891Z,26.06
2022-09-26T07:27:26.933Z,26.71
2022-09-26T07:28:29.275Z,27.06
2022-09-26T07:29:32.338Z,27.60
2022-09-26T07:30:34.515Z,27.69
2022-09-26T07:31:46.329Z,26.20
2022-09-26T07:33:03.708Z,26.60
2022-09-26T07:34:25.218Z,25.61
2022-09-26T07:35:27.368Z,26.03
2022-09-26T07:36:29.283Z,25.36
2022-09-26T07:37:32.224Z,25.76
2022-09-26T07:38:34.598Z,24.49
2022-09-26T07:39:37.774Z,25.43
2022-09-26T07:40:43.244Z,25.80
2022-09-26T07:41:46.110Z,26.27
2022-09-26T07:43:09.282Z,26.39
2022-09-26T07:45:51.139Z,27.05
2022-09-26T07:47:11.258Z,27.32
2022-09-26T07:48:31.930Z,27.91
2022-09-26T07:50:23.342Z,26.91
2022-09-26T07:51:40.007Z,26.44
2022-09-26T07:52:48.178Z,26.37
2022-09-26T07:53:49.825Z,26.98
2022-09-26T07:55:12.632Z,24.00
2022-09-26T07:56:26.128Z,27.55
2022-09-26T07:57:35.453Z,26.67
2022-09-26T07:58:50.576Z,26.32
2022-09-26T08:00:40.260Z,28.34
2022-09-26T08:02:30.577Z,28.17
2022-09-26T08:03:33.169Z,27.82
2022-09-26T08:04:45.286Z,28.39
2022-09-26T08:05:47.067Z,27.97
2022-09-26T08:06:50.193Z,27.23
2022-09-26T08:07:51.961Z,27.21
2022-09-26T08:09:12.087Z,26.04
2022-09-26T08:10:33.671Z,25.34
2022-09-26T08:11:55.857Z,26.05
2022-09-26T08:13:16.284Z,24.78
2022-09-26T08:14:37.476Z,24.47
2022-09-26T08:16:01.951Z,25.97
2022-09-26T08:17:04.183Z,26.21
2022-09-26T08:18:06.025Z,24.92
2022-09-26T08:19:17.179Z,24.23
2022-09-26T08:20:19.873Z,24.19
2022-09-26T08:21:23.148Z,24.90
2022-09-26T08:22:28.856Z,23.70
2022-09-26T08:23:30.712Z,24.61
2022-09-26T08:24:53.377Z,24.70
2022-09-26T08:26:09.763Z,24.18
2022-09-26T08:27:22.716Z,23.51
2022-09-26T08:28:28.524Z,22.04
2022-09-26T08:29:34.147Z,22.02
2022-09-26T08:30:37.150Z,22.58
2022-09-26T08:31:40.069Z,23.89
2022-09-26T08:32:44.454Z,24.14
2022-09-26T08:33:49.191Z,23.47
2022-09-26T08:34:52.567Z,24.02
2022-09-26T08:36:12.668Z,24.32
2022-09-26T08:38:02.797Z,23.93
2022-09-26T08:39:13.315Z,24.84
2022-09-26T08:41:14.273Z,23.98
2022-09-26T08:42:58.842Z,24.07
2022-09-26T08:44:34.382Z,23.59
2022-09-26T08:46:12.590Z,22.86
2022-09-26T08:47:34.742Z,24.47
2022-09-26T08:49:16.629Z,23.23
2022-09-26T08:50:32.699Z,23.87
2022-09-26T08:51:42.108Z,24.80
2022-09-26T08:53:10.406Z,23.88
2022-09-26T08:54:34.977Z,25.31
2022-09-26T08:55:43.437Z,25.67
2022-09-26T08:57:05.878Z,25.54
2022-09-26T08:58:15.285Z,25.54
2022-09-26T08:59:29.585Z,25.38
2022-09-26T09:00:34.425Z,24.73
2022-09-26T09:01:45.178Z,25.33
2022-09-26T09:03:04.065Z,24.02
2022-09-26T09:04:44.812Z,24.49
2022-09-26T09:05:54.590Z,24.48
2022-09-26T09:07:11.927Z,24.00
2022-09-26T09:08:22.765Z,25.25
2022-09-26T09:10:24.085Z,23.79
2022-09-26T09:11:51.091Z,24.65
2022-09-26T09:13:14.889Z,23.75
2022-09-26T09:14:40.309Z,22.73
2022-09-26T09:16:12.716Z,23.96
2022-09-26T09:17:43.027Z,24.32
2022-09-26T09:19:30.737Z,23.58
2022-09-26T09:21:09.190Z,24.42
2022-09-26T09:22:48.920Z,22.66
2022-09-26T09:24:14.123Z,22.44
2022-09-26T09:25:29.598Z,22.26
2022-09-26T09:28:10.466Z,23.61
2022-09-26T09:29:35.632Z,23.13
2022-09-26T09:31:02.184Z,22.41
2022-09-26T09:32:32.337Z,21.83
2022-09-26T09:33:58.789Z,21.73
2022-09-26T09:35:29.346Z,22.80
2022-09-26T09:36:57.777Z,23.23
2022-09-26T09:39:05.792Z,24.14
2022-09-26T09:40:35.695Z,22.55
2022-09-26T09:41:53.729Z,23.08
2022-09-26T09:43:13.767Z,22.25
2022-09-26T09:44:34.149Z,22.01
2022-09-26T09:45:48.301Z,21.09
2022-09-26T09:46:51.493Z,21.73
2022-09-26T09:47:53.524Z,22.87
2022-09-26T09:49:09.375Z,21.44
2022-09-26T09:50:17.662Z,20.86
2022-09-26T09:51:25.225Z,21.21
2022-09-26T09:52:43.027Z,21.41
2022-09-26T09:54:12.714Z,21.81
2022-09-26T09:55:38.682Z,20.58
2022-09-26T09:57:17.226Z,20.72
2022-09-26T09:58:18.885Z,20.28
2022-09-26T09:59:42.373Z,20.06
2022-09-26T10:01:03.758Z,21.42
2022-09-26T10:02:40.321Z,20.06
2022-09-26T10:04:05.370Z,21.23
2022-09-26T10:05:45.296Z,20.95
2022-09-26T10:06:52.629Z,19.94
2022-09-26T10:07:59.337Z,20.36
2022-09-26T10:09:54.176Z,20.29
2022-09-26T10:11:42.399Z,20.68
2022-09-26T10:13:27.270Z,20.41
2022-09-26T10:15:02.388Z,21.04
2022-09-26T10:16:23.788Z,20.80
2022-09-26T10:17:31.199Z,20.00
2022-09-26T10:19:00.821Z,19.24
2022-09-26T10:20:05.414Z,18.49
2022-09-26T10:21:16.198Z,18.11
2022-09-26T10:22:37.340Z,19.58
2022-09-26T10:23:46.805Z,18.89
2022-09-26T10:25:08.608Z,18.76
2022-09-26T10:26:13.727Z,19.48
2022-09-26T10:27:38.222Z,19.31
2022-09-26T10:28:57.980Z,19.62
2022-09-26T10:30:02.117Z,19.22
2022-09-26T10:31:10.623Z,17.66
2022-09-26T10:32:45.855Z,16.72
2022-09-26T10:34:24.284Z,16.20
2022-09-26T10:35:46.601Z,14.99
2022-09-26T10:36:50.801Z,16.10
2022-09-26T10:38:06.203Z,17.02
2022-09-26T10:39:35.386Z,17.04
2022-09-26T10:40:51.158Z,15.70
2022-09-26T10:41:58.461Z,16.80
2022-09-26T10:43:21.999Z,16.33
2022-09-26T10:44:28.978Z,16.57
2022-09-26T10:46:16.469Z,18.68
2022-09-26T10:47:38.152Z,19.70
2022-09-26T10:48:48.900Z,19.91
2022-09-26T10:50:17.687Z,21.12
2022-09-26T10:51:45.524Z,20.86
2022-09-26T10:52:57.634Z,19.70
2022-09-26T10:54:16.322Z,19.56
2022-09-26T10:55:29.240Z,19.37
2022-09-26T10:56:41.646Z,20.29
2022-09-26T10:57:48.664Z,20.54
2022-09-26T10:58:52.180Z,21.16
2022-09-26T10:59:59.457Z,20.64
2022-09-26T11:01:01.517Z,20.87
2022-09-26T11:02:05.490Z,20.50
2022-09-26T11:03:16.409Z,21.41
2022-09-26T11:05:05.442Z,20.32
2022-09-26T11:06:34.925Z,21.47
2022-09-26T11:08:38.263Z,21.71
2022-09-26T11:10:34.251Z,22.58
2022-09-26T11:11:48.035Z,22.20
2022-09-26T11:13:00.777Z,22.30
2022-09-26T11:14:07.546Z,22.81
2022-09-26T11:15:13.129Z,23.14
2022-09-26T11:16:20.300Z,22.64
2022-09-26T11:17:47.894Z,21.82
2022-09-26T11:19:07.873Z,22.05
2022-09-26T11:20:35.485Z,20.11
2022-09-26T11:22:08.033Z,19.45
2022-09-26T11:23:17.681Z,18.17
2022-09-26T11:24:37.947Z,18.49
2022-09-26T11:25:58.160Z,19.02
2022-09-26T11:27:10.671Z,19.63
2022-09-26T11:28:34.407Z,18.25
2022-09-26T11:30:21.811Z,18.62
2022-09-26T11:31:42.948Z,18.95
2022-09-26T11:33:17.536Z,19.84
2022-09-26T11:35:03.102Z,20.68
2022-09-26T11:36:28.802Z,21.26
2022-09-26T11:37:45.668Z,22.39
2022-09-26T11:38:55.972Z,21.34
2022-09-26T11:40:27.170Z,21.87
2022-09-26T11:41:38.720Z,20.77
2022-09-26T11:43:02.252Z,20.54
2022-09-26T11:44:35.715Z,19.18
2022-09-26T11:46:17.390Z,18.73
2022-09-26T11:48:17.022Z,18.73
2022-09-26T11:50:50.325Z,18.49
2022-09-26T11:52:29.610Z,18.41
2022-09-26T11:54:09.517Z,18.24
2022-09-26T11:55:24.283Z,18.76
2022-09-26T11:56:47.860Z,18.23
2022-09-26T11:57:55.464Z,18.14
2022-09-26T11:59:31.557Z,17.89
2022-09-26T12:01:16.971Z,18.76
2022-09-26T12:03:06.813Z,19.73
2022-09-26T12:04:57.941Z,20.44
2022-09-26T12:06:01.282Z,19.77
2022-09-26T12:07:22.354Z,18.95
2022-09-26T12:09:05.074Z,18.28
2022-09-26T12:10:33.049Z,18.65
2022-09-26T12:11:51.159Z,18.48
2022-09-26T12:13:17.211Z,16.92
2022-09-26T12:14:38.984Z,16.44
2022-09-26T12:16:07.001Z,16.14
2022-09-26T12:17:18.801Z,16.76
2022-09-26T12:18:43.543Z,17.14
2022-09-26T12:20:03.110Z,17.56
2022-09-26T12:21:28.846Z,17.44
2022-09-26T12:22:49.756Z,17.72
2022-09-26T12:24:31.178Z,15.30
2022-09-26T12:25:46.222Z,14.58
2022-09-26T12:27:04.256Z,14.31
2022-09-26T12:28:27.578Z,14.62
2022-09-26T12:29:46.933Z,14.32
2022-09-26T12:30:58.870Z,14.54
2022-09-26T12:32:27.347Z,14.81
2022-09-26T12:33:49.738Z,15.25
2022-09-26T12:35:32.002Z,14.35
2022-09-26T12:36:54.562Z,15.81
2022-09-26T12:38:20.662Z,16.84
2022-09-26T12:39:40.947Z,16.93
2022-09-26T12:40:53.716Z,16.35
2022-09-26T12:42:13.882Z,16.67
2022-09-26T12:43:44.642Z,16.26
2022-09-26T12:45:20.082Z,16.62
2022-09-26T12:46:59.253Z,16.67
2022-09-26T12:48:35.768Z,16.68
2022-09-26T12:50:08.183Z,16.06
2022-09-26T12:51:32.767Z,17.76
2022-09-26T12:53:02.917Z,16.72
2022-09-26T12:54:40.213Z,16.54
2022-09-26T12:55:47.542Z,16.50
2022-09-26T12:57:00.966Z,15.16
2022-09-26T12:58:37.957Z,15.67
2022-09-26T13:00:12.562Z,14.80
2022-09-26T13:01:44.952Z,14.86
2022-09-26T13:03:10.479Z,14.89
2022-09-26T13:04:39.956Z,13.64
2022-09-26T13:06:09.575Z,12.42
2022-09-26T13:07:42.342Z,10.76
2022-09-26T13:09:24.115Z,11.56
2022-09-26T13:10:40.906Z,11.98
2022-09-26T13:11:59.517Z,12.71
2022-09-26T13:13:47.674Z,12.09
2022-09-26T13:15:00.803Z,12.84
2022-09-26T13:16:27.555Z,13.89
2022-09-26T13:17:46.042Z,14.29
2022-09-26T13:18:56.551Z,14.57
2022-09-26T13:20:14.643Z,15.28
2022-09-26T13:21:27.077Z,15.14
2022-09-26T13:22:44.357Z,16.89
2022-09-26T13:24:01.124Z,16.66
2022-09-26T13:25:11.498Z,16.68
2022-09-26T13:26:43.725Z,15.90
2022-09-26T13:28:09.207Z,16.03
2022-09-26T13:29:26.999Z,16.42
2022-09-26T13:30:35.692Z,17.30
2022-09-26T13:31:56.106Z,17.65
2022-09-26T13:33:20.853Z,17.52
2022-09-26T13:34:37.498Z,17.17
2022-09-26T13:35:47.791Z,18.65
2022-09-26T13:36:51.620Z,17.37
2022-09-26T13:38:15.427Z,16.69
2022-09-26T13:39:29.948Z,18.40
2022-09-26T13:40:55.569Z,16.55
2022-09-26T13:42:17.908Z,15.40
2022-09-26T13:43:47.675Z,14.73
2022-09-26T13:45:02.458Z,14.86
2022-09-26T13:46:20.317Z,14.56
2022-09-26T13:47:41.457Z,14.28
2022-09-26T13:49:01.116Z,13.47
2022-09-26T13:50:23.305Z,13.13
2022-09-26T13:51:40.136Z,13.27
2022-09-26T13:53:09.961Z,13.94
2022-09-26T13:54:27.853Z,13.47
2022-09-26T13:55:30.335Z,13.37
2022-09-26T13:56:35.085Z,12.18
2022-09-26T13:58:06.914Z,12.85
2022-09-26T13:59:14.736Z,13.22
2022-09-26T14:00:31.475Z,12.97
2022-09-26T14:01:33.668Z,12.68
2022-09-26T14:02:35.429Z,12.44
2022-09-26T14:03:38.918Z,13.19
2022-09-26T14:04:40.727Z,13.06
2022-09-26T14:05:42.246Z,12.75
2022-09-26T14:07:24.084Z,12.90
2022-09-26T14:08:44.246Z,12.55
2022-09-26T14:10:04.001Z,13.34
2022-09-26T14:11:12.166Z,13.34
2022-09-26T14:12:20.226Z,13.40
2022-09-26T14:13:37.261Z,12.92
2022-09-26T14:14:46.298Z,13.09
2022-09-26T14:15:48.250Z,13.28
2022-09-26T14:16:53.679Z,13.74
2022-09-26T14:18:08.457Z,14.18
2022-09-26T14:19:18.848Z,14.13
2022-09-26T14:20:27.293Z,14.08
2022-09-26T14:21:39.811Z,14.71
2022-09-26T14:22:52.641Z,15.76
2022-09-26T14:24:32.047Z,15.06
2022-09-26T14:25:45.770Z,11.43
2022-09-26T14:27:26.093Z,10.34
2022-09-26T14:28:34.929Z,8.77
2022-09-26T14:29:39.340Z,8.58
2022-09-26T14:31:13.303Z,8.09
2022-09-26T14:32:43.465Z,7.32
2022-09-26T14:33:46.101Z,7.38
2022-09-26T14:34:57.172Z,7.24
2022-09-26T14:36:25.535Z,7.59
2022-09-26T14:37:41.484Z,8.18
2022-09-26T14:38:48.406Z,8.00
2022-09-26T14:40:34.517Z,7.61
2022-09-26T14:41:36.627Z,6.91
2022-09-26T14:42:51.756Z,6.60
2022-09-26T14:44:02.573Z,7.00
2022-09-26T14:45:17.558Z,8.05
2022-09-26T14:46:25.475Z,7.45
2022-09-26T14:47:40.206Z,6.59
2022-09-26T14:48:43.231Z,7.46
2022-09-26T14:49:58.049Z,9.55
2022-09-26T14:51:11.707Z,9.71
2022-09-26T14:52:20.385Z,7.77
2022-09-26T14:53:34.044Z,7.26
2022-09-26T14:54:40.830Z,8.01
2022-09-26T14:56:02.997Z,8.42
2022-09-26T14:57:08.319Z,9.89
2022-09-26T14:58:28.902Z,9.58
2022-09-26T14:59:42.453Z,9.93
2022-09-26T15:00:49.693Z,10.35
2022-09-26T15:02:40.567Z,11.00
2022-09-26T15:03:43.183Z,10.98
2022-09-26T15:04:51.745Z,10.24
2022-09-26T15:05:53.427Z,10.64
2022-09-26T15:07:01.092Z,10.53
2022-09-26T15:08:03.075Z,11.91
2022-09-26T15:09:11.334Z,16.23
2022-09-26T15:10:13.251Z,16.85
2022-09-26T15:11:30.200Z,14.39
2022-09-26T15:12:48.202Z,12.64
2022-09-26T15:13:52.570Z,12.50
2022-09-26T15:15:15.801Z,11.11
2022-09-26T15:16:29.204Z,11.11
2022-09-26T15:17:40.459Z,11.67
2022-09-26T15:18:50.060Z,14.27
2022-09-26T15:19:57.622Z,15.23
2022-09-26T15:21:12.027Z,13.88
2022-09-26T15:22:18.845Z,12.39
2022-09-26T15:23:31.674Z,13.37
2022-09-26T15:24:36.684Z,13.64
2022-09-26T15:25:38.820Z,14.59
2022-09-26T15:26:43.324Z,14.82
2022-09-26T15:27:56.943Z,14.60
2022-09-26T15:29:00.277Z,20.82
2022-09-26T15:30:22.759Z,26.44
2022-09-26T15:31:38.017Z,26.98
2022-09-26T15:32:40.237Z,30.56
2022-09-26T15:33:42.148Z,26.25
2022-09-26T15:34:44.659Z,19.08
2022-09-26T15:35:54.195Z,17.28
2022-09-26T15:36:59.313Z,17.00
2022-09-26T15:38:12.099Z,14.59
2022-09-26T15:39:31.975Z,17.73
2022-09-26T15:40:33.853Z,21.74
2022-09-26T15:42:03.284Z,20.35
2022-09-26T15:43:12.489Z,19.69
2022-09-26T15:44:23.556Z,16.81
2022-09-26T15:45:33.589Z,16.80
2022-09-26T15:46:35.703Z,25.03
2022-09-26T15:47:43.298Z,28.04
2022-09-26T15:48:45.126Z,25.39
2022-09-26T15:49:47.263Z,34.58
2022-09-26T15:50:57.360Z,40.11
2022-09-26T15:51:59.170Z,29.30
2022-09-26T15:53:28.058Z,27.31
2022-09-26T15:54:33.046Z,25.73
2022-09-26T15:55:45.479Z,39.83
2022-09-26T15:56:50.156Z,31.92
2022-09-26T15:57:57.136Z,38.81
2022-09-26T15:59:26.389Z,32.78
2022-09-26T16:00:36.370Z,72.60
2022-09-26T16:01:44.567Z,35.55